地図

経路データ

SID SEASON NUMBER BASIN SUBBASIN NAME ISO_TIME NATURE LAT LON WMO_WIND WMO_PRES WMO_AGENCY TRACK_TYPE DIST2LAND LANDFALL IFLAG USA_AGENCY USA_ATCF_ID USA_LAT USA_LON USA_RECORD USA_STATUS USA_WIND USA_PRES USA_SSHS USA_R34_NE USA_R34_SE USA_R34_SW USA_R34_NW USA_R50_NE USA_R50_SE USA_R50_SW USA_R50_NW USA_R64_NE USA_R64_SE USA_R64_SW USA_R64_NW USA_POCI USA_ROCI USA_RMW USA_EYE TOKYO_LAT TOKYO_LON TOKYO_GRADE TOKYO_WIND TOKYO_PRES TOKYO_R50_DIR TOKYO_R50_LONG TOKYO_R50_SHORT TOKYO_R30_DIR TOKYO_R30_LONG TOKYO_R30_SHORT TOKYO_LAND CMA_LAT CMA_LON CMA_CAT CMA_WIND CMA_PRES HKO_LAT HKO_LON HKO_CAT HKO_WIND HKO_PRES NEWDELHI_LAT NEWDELHI_LON NEWDELHI_GRADE NEWDELHI_WIND NEWDELHI_PRES NEWDELHI_CI NEWDELHI_DP NEWDELHI_POCI REUNION_LAT REUNION_LON REUNION_TYPE REUNION_WIND REUNION_PRES REUNION_TNUM REUNION_CI REUNION_RMW REUNION_R34_NE REUNION_R34_SE REUNION_R34_SW REUNION_R34_NW REUNION_R50_NE REUNION_R50_SE REUNION_R50_SW REUNION_R50_NW REUNION_R64_NE REUNION_R64_SE REUNION_R64_SW REUNION_R64_NW BOM_LAT BOM_LON BOM_TYPE BOM_WIND BOM_PRES BOM_TNUM BOM_CI BOM_RMW BOM_R34_NE BOM_R34_SE BOM_R34_SW BOM_R34_NW BOM_R50_NE BOM_R50_SE BOM_R50_SW BOM_R50_NW BOM_R64_NE BOM_R64_SE BOM_R64_SW BOM_R64_NW BOM_ROCI BOM_POCI BOM_EYE BOM_POS_METHOD BOM_PRES_METHOD NADI_LAT NADI_LON NADI_CAT NADI_WIND NADI_PRES WELLINGTON_LAT WELLINGTON_LON WELLINGTON_WIND WELLINGTON_PRES DS824_LAT DS824_LON DS824_STAGE DS824_WIND DS824_PRES TD9636_LAT TD9636_LON TD9636_STAGE TD9636_WIND TD9636_PRES TD9635_LAT TD9635_LON TD9635_WIND TD9635_PRES TD9635_ROCI NEUMANN_LAT NEUMANN_LON NEUMANN_CLASS NEUMANN_WIND NEUMANN_PRES MLC_LAT MLC_LON MLC_CLASS MLC_WIND MLC_PRES USA_GUST BOM_GUST BOM_GUST_PER REUNION_GUST REUNION_GUST_PER USA_SEAHGT USA_SEARAD_NE USA_SEARAD_SE USA_SEARAD_SW USA_SEARAD_NW STORM_SPEED STORM_DIR
1970345S09089 1971 153 SI MM DOMINIQUE:HILARY 1970-12-11 00:00:00 TS -9.00000 89.0000 main 1367 1367 _________O____ -1 -9.00000 89.0000 TC 20 1004 2 0
1970345S09089 1971 153 SI MM DOMINIQUE:HILARY 1970-12-11 03:00:00 TS -9.10500 89.0000 main 1374 1374 _________P____ -1 -9.10500 89.0000 TC 20 1004 2 172
1970345S09089 1971 153 SI MM DOMINIQUE:HILARY 1970-12-11 06:00:00 TS -9.20000 89.0000 main 1381 1381 _________O____ -1 -9.20000 89.0000 TC 20 1004 2 173
1970345S09089 1971 153 SI MM DOMINIQUE:HILARY 1970-12-11 09:00:00 TS -9.28500 89.0000 main 1387 1387 _________P____ -1 -9.28500 89.0000 TC 20 1004 2 172
1970345S09089 1971 153 SI MM DOMINIQUE:HILARY 1970-12-11 12:00:00 TS -9.40000 89.0000 main 1394 1394 _________O____ -1 -9.40000 89.0000 TC 20 1004 3 0
1970345S09089 1971 153 SI MM DOMINIQUE:HILARY 1970-12-11 15:00:00 TS -9.60000 89.0000 main 1408 1408 _________P____ -1 -9.60000 89.0000 TC 20 1004 4 0
1970345S09089 1971 153 SI MM DOMINIQUE:HILARY 1970-12-11 18:00:00 TS -9.80000 89.0000 main 1422 1422 _________O____ -1 -9.80000 89.0000 TC 20 1004 3 0
1970345S09089 1971 153 SI MM DOMINIQUE:HILARY 1970-12-11 21:00:00 TS -9.91500 89.0000 main 1429 1429 _________P____ -1 -9.91500 89.0000 TC 20 1004 2 172
1970345S09089 1971 153 SI MM DOMINIQUE:HILARY 1970-12-12 00:00:00 TS -10.0000 89.0000 main 1436 1436 _________O__O_ -1 -10.0000 89.0000 TC 20 1004 -10.0000 89.0000 TC 20 1004 2 177
1970345S09089 1971 153 SI MM DOMINIQUE:HILARY 1970-12-12 03:00:00 TS -10.0917 89.0000 main 1443 1443 _________P__P_ -1 -10.0925 89.0000 TC 25 1002 -10.0900 89.0000 TC 25 1002 2 172
1970345S09089 1971 153 SI MM DOMINIQUE:HILARY 1970-12-12 06:00:00 TS -10.2000 89.0000 main 1451 1451 _________O__O_ -1 -10.2000 89.0000 TC 30 1000 -10.2000 89.0000 TC 30 1000 3 0
1970345S09089 1971 153 SI MM DOMINIQUE:HILARY 1970-12-12 09:00:00 TS -10.3425 89.0000 main 1458 1458 _________P__P_ -1 -10.3425 89.0000 TC 32 998 -10.3425 89.0000 TC 32 998 3 0
1970345S09089 1971 153 SI MM DOMINIQUE:HILARY 1970-12-12 12:00:00 TS -10.5000 89.0000 main 1473 1473 _________O__O_ -1 -10.5000 89.0000 TC 35 996 -10.5000 89.0000 TC 35 996 3 0
1970345S09089 1971 153 SI MM DOMINIQUE:HILARY 1970-12-12 15:00:00 TS -10.6575 89.0000 main 1488 1488 _________P__P_ -1 -10.6575 89.0000 TC 40 994 -10.6575 89.0000 TC 40 994 3 0
1970345S09089 1971 153 SI MM DOMINIQUE:HILARY 1970-12-12 18:00:00 TS -10.8000 89.0000 main 1495 1495 _________O__O_ -1 -10.8000 89.0000 TC 45 992 -10.8000 89.0000 TC 45 992 3 177
1970345S09089 1971 153 SI MM DOMINIQUE:HILARY 1970-12-12 21:00:00 TS -10.9225 89.0000 main 1503 1503 _________P__P_ -1 -10.9225 89.0000 TC 45 991 -10.9225 89.0000 TC 45 991 2 172
1970345S09089 1971 153 SI MM DOMINIQUE:HILARY 1970-12-13 00:00:00 TS -11.0000 89.0000 main 1510 1510 _________O__O_ -1 -11.0000 89.0000 TC 45 990 -11.0000 89.0000 TC 45 990 1 164
1970345S09089 1971 153 SI MM DOMINIQUE:HILARY 1970-12-13 03:00:00 TS -11.0075 89.0000 main 1510 1510 _________P__P_ -1 -11.0075 89.0000 TC 45 990 -11.0075 89.0000 TC 45 990 0 0
1970345S09089 1971 153 SI MM DOMINIQUE:HILARY 1970-12-13 06:00:00 TS -11.0000 89.0000 main 1510 1510 _________O__O_ -1 -11.0000 89.0000 TC 45 990 -11.0000 89.0000 TC 45 990 0 0
1970345S09089 1971 153 SI MM DOMINIQUE:HILARY 1970-12-13 09:00:00 TS -11.0350 89.0000 main 1510 1510 _________P__P_ -1 -11.0350 89.0000 TC 45 990 -11.0350 89.0000 TC 45 990 1 0
1970345S09089 1971 153 SI MM DOMINIQUE:HILARY 1970-12-13 12:00:00 TS -11.1000 89.0000 main 1518 1518 _________O__O_ -1 -11.1000 89.0000 TC 45 990 -11.1000 89.0000 TC 45 990 2 0
1970345S09089 1971 153 SI MM DOMINIQUE:HILARY 1970-12-13 15:00:00 TS -11.2000 89.0000 main 1526 1526 _________P__P_ -1 -11.2000 89.0000 TC 45 990 -11.2000 89.0000 TC 45 990 2 172
1970345S09089 1971 153 SI MM DOMINIQUE:HILARY 1970-12-13 18:00:00 TS -11.3000 89.0000 main 1533 1533 _________O__O_ -1 -11.3000 89.0000 TC 45 990 -11.3000 89.0000 TC 45 990 2 0
1970345S09089 1971 153 SI MM DOMINIQUE:HILARY 1970-12-13 21:00:00 TS -11.3650 89.0150 main 1541 1541 _________P__P_ -1 -11.3650 89.0150 TC 45 990 -11.3650 89.0150 TC 45 990 1 0
1970345S09089 1971 153 SI MM DOMINIQUE:HILARY 1970-12-14 00:00:00 TS -11.4000 89.0000 main 1541 1541 _________O__O_ -1 -11.4000 89.0000 TC 45 990 -11.4000 89.0000 TC 45 990 1 252
1970345S09089 1971 153 SI MM DOMINIQUE:HILARY 1970-12-14 03:00:00 TS -11.4000 88.9075 main 1549 1541 _________P__P_ -1 -11.4000 88.9075 TC 45 990 -11.4000 88.9075 TC 45 990 2 299
1970345S09089 1971 153 SI MM DOMINIQUE:HILARY 1970-12-14 06:00:00 TS -11.2909 88.8000 main 1549 1549 O________OO_O_ jtwc_sh SH041971 -11.0000 88.8000 -1 -11.4000 88.8000 TC 45 990 -11.0000 88.8000 1 -11.4000 88.8000 TC 45 990 1 302
1970345S09089 1971 153 SI MM DOMINIQUE:HILARY 1970-12-14 09:00:00 TS -11.3364 88.8129 main 1549 1549 P________PP_P_ SH041971 -11.2075 88.9249 -1 -11.4350 88.7425 TC 45 990 -11.2000 88.8702 1 -11.4350 88.7425 TC 45 990 2 167
1970345S09089 1971 153 SI MM DOMINIQUE:HILARY 1970-12-14 12:00:00 TS -11.4453 88.8451 main 1557 1557 O________OP_O_ jtwc_sh SH041971 -11.4000 89.0000 -1 -11.5000 88.7000 TC 45 990 -11.3900 88.9224 1 -11.5000 88.7000 TC 45 990 2 0
1970345S09089 1971 153 SI MM DOMINIQUE:HILARY 1970-12-14 15:00:00 TS -11.5750 88.8397 main 1572 1572 P________PP_P_ SH041971 -11.5650 88.9875 -1 -11.5925 88.6425 TC 45 990 -11.5600 88.9384 1 -11.5925 88.6425 TC 45 990 3 194
1970345S09089 1971 153 SI MM DOMINIQUE:HILARY 1970-12-14 18:00:00 TS -11.7000 88.7800 main 1580 1580 O________OO_O_ jtwc_sh SH041971 -11.7000 88.9000 -1 -11.7000 88.6000 TC 45 990 -11.7000 88.9000 1 -11.7000 88.6000 TC 45 990 3 208
1970345S09089 1971 153 SI MM DOMINIQUE:HILARY 1970-12-14 21:00:00 TS -11.8101 88.7142 main 1596 1596 P________PP_P_ SH041971 -11.8075 88.7650 -1 -11.8150 88.6225 TC 45 990 -11.8054 88.7963 1 -11.8150 88.6225 TC 45 990 3 220
1970345S09089 1971 153 SI MM DOMINIQUE:HILARY 1970-12-15 00:00:00 TS -11.8985 88.6090 main 1611 1611 O________OP_O_ jtwc_sh SH041971 -11.9000 88.6000 -1 -11.9000 88.6000 TC 45 990 -11.8926 88.6450 1 -11.9000 88.6000 TC 45 990 3 242
1970345S09089 1971 153 SI MM DOMINIQUE:HILARY 1970-12-15 03:00:00 TS -11.9537 88.4432 main 1635 1635 P________PP_P_ SH041971 -11.9775 88.4425 -1 -11.9150 88.4300 TC 47 989 -11.9835 88.4712 1 -11.9150 88.4300 TC 47 989 4 250
1970345S09089 1971 153 SI MM DOMINIQUE:HILARY 1970-12-15 06:00:00 TS -12.0200 88.2600 main 1643 1643 O________OO_O_ jtwc_sh SH041971 -12.1000 88.3000 -1 -11.9000 88.2000 TC 50 989 -12.1000 88.3000 2 -11.9000 88.2000 TC 50 989 4 237
1970345S09089 1971 153 SI MM DOMINIQUE:HILARY 1970-12-15 09:00:00 TS -12.1569 88.1206 main 1674 1674 P________PP_P_ SH041971 -12.3425 88.2000 -1 -11.9000 88.0075 TC 50 988 -12.2996 88.1882 2 -11.9000 88.0075 TC 50 988 4 224
1970345S09089 1971 153 SI MM DOMINIQUE:HILARY 1970-12-15 12:00:00 TS -12.3045 87.9760 main 1689 1689 O________OP_O_ jtwc_sh SH041971 -12.6000 88.1000 -1 -11.9000 87.8000 TC 50 987 -12.5223 88.0801 2 -11.9000 87.8000 TC 50 987 4 231
1970345S09089 1971 153 SI MM DOMINIQUE:HILARY 1970-12-15 15:00:00 TS -12.4188 87.7944 main 1713 1713 P________PP_P_ SH041971 -12.7875 87.9650 -1 -11.8925 87.5425 TC 50 986 -12.7339 87.9569 2 -11.8925 87.5425 TC 52 986 4 242
1970345S09089 1971 153 SI MM DOMINIQUE:HILARY 1970-12-15 18:00:00 TS -12.5000 87.6000 main 1736 1736 O________OO_O_ jtwc_sh SH041971 -12.9000 87.8000 -1 -11.9000 87.3000 TC 50 986 -12.9000 87.8000 2 -11.9000 87.3000 TC 55 986 4 254
1970345S09089 1971 153 SI MM DOMINIQUE:HILARY 1970-12-15 21:00:00 TS -12.5200 87.4288 main 1752 1752 P________PP_P_ SH041971 -12.9150 87.6224 -1 -11.9199 87.1724 TC 52 985 -12.9751 87.6142 2 -11.8750 87.1125 TC 47 4 260
1970345S09089 1971 153 SI MM DOMINIQUE:HILARY 1970-12-16 00:00:00 TS -12.5604 87.2380 main 1776 1776 O________OP_O_ jtwc_sh SH041971 -12.9000 87.4000 -1 -12.0000 87.0000 TC 55 985 -13.0022 87.3898 2 -12.0000 87.0000 TC 40 5 245
1970345S09089 1971 153 SI MM DOMINIQUE:HILARY 1970-12-16 03:00:00 TS -12.7161 86.9991 main 1799 1799 P________PP_P_ SH041971 -12.9425 87.1300 -1 -12.1776 86.6376 TC 55 984 -13.0032 87.1204 2 -12.5150 86.9774 TC 37 6 234
1970345S09089 1971 153 SI MM DOMINIQUE:HILARY 1970-12-16 06:00:00 TS -12.8857 86.7809 main 1831 1831 O____O___OO_O_ jtwc_sh SH041971 -13.0000 86.8000 -1 -13.0000 88.0000 3 9.90000 -12.4000 86.2000 TC 55 984 -13.0000 86.8000 2 -13.0000 87.0000 TC 35 5 242
1970345S09089 1971 153 SI MM DOMINIQUE:HILARY 1970-12-16 09:00:00 TS -12.9586 86.5305 main 1862 1862 P____P___PP_P_ SH041971 -13.0575 86.4225 -1 -12.9626 87.5200 3 -12.6075 85.7850 TC 55 983 -13.0290 86.4375 2 -13.0398 87.0901 TC 35 6 261
1970345S09089 1971 153 SI MM DOMINIQUE:HILARY 1970-12-16 12:00:00 TS -12.9796 86.2044 main 1887 1887 O____O___OP_O_ jtwc_sh SH041971 -13.1000 86.0000 -1 -12.9000 87.0000 99 9.90000 -12.8000 85.4000 TC 55 983 -13.0574 86.0250 2 -12.9000 87.0000 TC 35 7 269
1970345S09089 1971 153 SI MM DOMINIQUE:HILARY 1970-12-16 15:00:00 TS -12.9770 85.7849 main 1919 1919 P____P___PP_P_ SH041971 -13.1074 85.5650 -1 -12.8000 86.4149 99 -12.9649 85.0999 TC 55 982 -13.0821 85.5750 2 -12.8003 86.4899 TC 37 9 271
1970345S09089 1971 153 SI MM DOMINIQUE:HILARY 1970-12-16 18:00:00 TS -12.9667 85.2833 main 1961 1961 O____O___OO_O_ jtwc_sh SH041971 -13.1000 85.1000 -1 -12.7000 85.8000 99 9.90000 -13.1000 84.8000 TC 55 982 -13.1000 85.1000 2 -12.7000 85.8000 TC 40 10 271
1970345S09089 1971 153 SI MM DOMINIQUE:HILARY 1970-12-16 21:00:00 TS -12.9663 84.8043 main 2004 2004 P____P___PP_P_ SH041971 -13.0999 84.6075 -1 -12.6421 85.2301 99 -13.2069 84.5048 TC 57 981 -13.1067 84.6458 2 -12.6421 85.2301 TC 42 10 270
1970345S09089 1971 153 SI MM DOMINIQUE:HILARY 1970-12-17 00:00:00 TS -12.9678 84.2612 main 2047 2047 O____O___OP_O_ jtwc_sh SH041971 -13.1000 84.1000 -1 -12.6000 84.6000 99 9.90000 -13.3000 84.0000 TC 60 980 -13.1068 84.1673 2 -12.6000 84.6000 TC 45 12 270
1970345S09089 1971 153 SI MM DOMINIQUE:HILARY 1970-12-17 03:00:00 TS -12.9599 83.5858 main 2108 2108 P____P___PP_P_ SH041971 -13.0998 83.6150 -1 -12.5277 83.8073 99 -13.4012 83.0151 TC 62 978 -13.1035 83.6552 2 -12.5277 83.8073 TC 47 13 270
1970345S09089 1971 153 SI MM DOMINIQUE:HILARY 1970-12-17 06:00:00 TS -12.9667 82.8833 main 2132 2125 O____O___OO_O_ jtwc_sh SH041971 -13.1000 83.1000 -1 -12.5000 83.0000 3 9.90000 -13.5000 82.0000 TC 65 977 -13.1000 83.1000 2 -12.5000 83.0000 TC 50 13 268
1970345S09089 1971 153 SI MM DOMINIQUE:HILARY 1970-12-17 09:00:00 TS -13.0079 82.2994 main 2125 2122 P____P___PP_P_ SH041971 -13.0998 82.5300 -1 -12.5769 82.3576 3 -13.5987 81.4998 TC 65 975 -13.0954 82.5213 2 -12.5769 82.3576 TC 50 12 265
1970345S09089 1971 153 SI MM DOMINIQUE:HILARY 1970-12-17 12:00:00 TS -13.0653 81.6829 main 2132 2128 O____O___OP_O_ jtwc_sh SH041971 -13.1000 81.9000 -1 -12.7000 81.7000 99 9.90000 -13.7000 81.0000 TC 65 974 -13.0916 81.8971 2 -12.7000 81.7000 TC 50 14 265
1970345S09089 1971 153 SI MM DOMINIQUE:HILARY 1970-12-17 15:00:00 TS -13.1193 80.8974 main 2128 2128 P____P___PP_P_ SH041971 -13.0997 81.2375 -1 -12.8078 80.8426 99 -13.8086 80.0002 TC 67 972 -13.0920 81.2244 2 -12.8078 80.8426 TC 52 15 267
1970345S09089 1971 153 SI MM DOMINIQUE:HILARY 1970-12-17 18:00:00 TS -13.1348 80.1304 reunion main 2129 2129 O____O___OO_O_ jtwc_sh SH041971 -13.1000 80.5000 -1 -12.9000 80.0000 99 9.90000 -13.9000 79.0000 TC 70 971 -13.1000 80.5000 2 -12.9000 80.0000 TC 55 14 270
1970345S09089 1971 153 SI MM DOMINIQUE:HILARY 1970-12-17 21:00:00 TS -13.1086 79.4574 main 2132 2132 P____P___PP_P_ SH041971 -13.0925 79.6649 -1 -12.9192 79.4070 99 -13.9593 78.3750 TC 70 970 -13.0942 79.6844 2 -12.9192 79.4070 TC 57 13 271
1970345S09089 1971 153 SI MM DOMINIQUE:HILARY 1970-12-18 00:00:00 TS -13.1045 78.7670 reunion main 2138 2138 O____O___OP_O_ jtwc_sh SH041971 -13.1000 78.8000 -1 -13.0000 78.8000 99 9.90000 -14.0000 78.0000 TC 70 970 -13.0987 78.8270 2 -13.0000 78.8000 TC 60 15 267
1970345S09089 1971 153 SI MM DOMINIQUE:HILARY 1970-12-18 03:00:00 TS -13.1909 77.9474 main 2160 2160 P____P____P_P_ SH041971 -13.1274 77.9625 -1 -13.2854 77.9156 99 TC -13.1286 77.9811 2 -13.2854 77.9156 TC 62 16 261
1970345S09089 1971 153 SI MM DOMINIQUE:HILARY 1970-12-18 06:00:00 TS -13.3600 77.1200 reunion main 2192 2128 O____O____O_O_ jtwc_sh SH041971 -13.2000 77.2000 -1 -13.6000 77.0000 4 9.90000 -13.2000 77.2000 4 -13.6000 77.0000 TC 65 15 258
1970345S09089 1971 153 SI MM DOMINIQUE:HILARY 1970-12-18 09:00:00 TS -13.5119 76.4528 main 2128 2060 P____P____P_P_ SH041971 -13.3272 76.5625 -1 -13.7794 76.2847 4 -13.3465 76.5699 4 -13.7794 76.2847 TC 67 13 256
1970345S09089 1971 153 SI MM DOMINIQUE:HILARY 1970-12-18 12:00:00 TS -13.6666 75.8411 reunion main 2050 1986 O____O____P_O_ jtwc_sh SH041971 -13.5000 76.0000 -1 -13.9000 75.6000 99 9.90000 -13.5329 76.0056 4 -13.9000 75.6000 TC 70 13 255
1970345S09089 1971 153 SI MM DOMINIQUE:HILARY 1970-12-18 15:00:00 TS -13.8344 75.1987 main 1986 1917 P____P____P_P_ SH041971 -13.7147 75.4576 -1 -14.0075 74.8074 99 -13.7279 75.4635 4 -14.0075 74.8074 TC 72 13 256
1970345S09089 1971 153 SI MM DOMINIQUE:HILARY 1970-12-18 18:00:00 TS -13.9800 74.5400 reunion main 1908 1844 O____O____O_O_ jtwc_sh SH041971 -13.9000 74.9000 -1 -14.1000 74.0000 99 9.90000 -13.9000 74.9000 4 -14.1000 74.0000 TC 75 13 260
1970345S09089 1971 153 SI MM DOMINIQUE:HILARY 1970-12-18 21:00:00 TS -14.0649 73.8581 main 1844 1775 P____P____P_P_ SH041971 -13.9649 74.2722 -1 -14.1997 73.2424 99 -13.9953 74.2612 4 -14.1997 73.2424 TC 77 14 263
1970345S09089 1971 153 SI MM DOMINIQUE:HILARY 1970-12-19 00:00:00 TS -14.1329 73.1588 reunion main 1775 1702 O____O____P_O_ jtwc_sh SH041971 -14.0000 73.6000 -1 -14.3000 72.5000 99 9.90000 -14.0645 73.5940 4 -14.3000 72.5000 TC 80 14 264
1970345S09089 1971 153 SI MM DOMINIQUE:HILARY 1970-12-19 03:00:00 TS -14.2192 72.4349 main 1693 1630 P____P____P_P_ SH041971 -14.0924 72.9075 -1 -14.3925 71.7274 99 -14.1264 72.9049 4 -14.3925 71.7274 TC 82 14 262
1970345S09089 1971 153 SI MM DOMINIQUE:HILARY 1970-12-19 06:00:00 TS -14.3200 71.7200 reunion main 1620 1557 O____O____O_O_ jtwc_sh SH041971 -14.2000 72.2000 -1 -14.5000 71.0000 4 9.90000 -14.2000 72.2000 4 -14.5000 71.0000 TC 85 14 260
1970345S09089 1971 153 SI MM DOMINIQUE:HILARY 1970-12-19 09:00:00 TS -14.4486 71.0453 main 1548 1480 P____P____P_P_ SH041971 -14.2922 71.5073 -1 -14.6723 70.3552 4 -14.3140 71.5016 4 -14.6723 70.3552 TC 87 13 259
1970345S09089 1971 153 SI MM DOMINIQUE:HILARY 1970-12-19 12:00:00 TS -14.5683 70.3975 reunion main 1480 1423 O____O____P_O_ jtwc_sh SH041971 -14.4000 70.8000 -1 -14.8000 69.8000 99 9.90000 -14.4415 70.7875 4 -14.8000 69.8000 TC 90 12 261
1970345S09089 1971 153 SI MM DOMINIQUE:HILARY 1970-12-19 15:00:00 TS -14.6434 69.7738 main 1423 1361 P____P____P_P_ SH041971 -14.5497 70.0725 -1 -14.7722 69.3348 99 -14.5732 70.0546 4 -14.7722 69.3348 TC 92 12 264
1970345S09089 1971 153 SI MM DOMINIQUE:HILARY 1970-12-19 18:00:00 TS -14.7000 69.1400 reunion main 1351 1289 O____O____O_O_ jtwc_sh SH041971 -14.7000 69.3000 -1 -14.7000 68.9000 99 9.90000 -14.7000 69.3000 4 -14.7000 68.9000 TC 95 13 265
1970345S09089 1971 153 SI MM DOMINIQUE:HILARY 1970-12-19 21:00:00 TS -14.7641 68.4281 main 1280 1224 P____P____P_P_ SH041971 -14.8075 68.4499 -1 -14.6925 68.4000 99 -14.8205 68.4407 4 -14.6925 68.4000 TC 95 14 265
1970345S09089 1971 153 SI MM DOMINIQUE:HILARY 1970-12-20 00:00:00 TS -14.8264 67.7146 reunion main 1214 1153 O____O____P_O_ jtwc_sh SH041971 -14.9000 67.6000 -1 -14.7000 67.9000 99 9.90000 -14.9318 67.5731 4 -14.7000 67.9000 TC 95 14 265
1970345S09089 1971 153 SI MM DOMINIQUE:HILARY 1970-12-20 03:00:00 TS -14.8854 67.0348 main 1144 1099 P____P____P_P_ SH041971 -15.0076 66.7751 -1 -14.6924 67.4275 99 -15.0269 66.7688 4 -14.6924 67.4275 TC 97 12 265
1970345S09089 1971 153 SI MM DOMINIQUE:HILARY 1970-12-20 06:00:00 TS -14.9400 66.4600 reunion main 1099 1057 O____O____O_O_ jtwc_sh SH041971 -15.1000 66.1000 -1 -14.7000 67.0000 4 9.90000 -15.1000 66.1000 4 -14.7000 67.0000 TC 100 10 264
1970345S09089 1971 153 SI MM DOMINIQUE:HILARY 1970-12-20 09:00:00 TS -14.9909 66.0532 main 1057 1030 P____P____P_P_ SH041971 -15.1646 65.6749 -1 -14.7424 66.6200 4 -15.1406 65.6762 4 -14.7424 66.6200 TC 97 7 262
1970345S09089 1971 153 SI MM DOMINIQUE:HILARY 1970-12-20 12:00:00 TS -15.0325 65.7574 reunion main 1030 998 O____O____P_O_ jtwc_sh SH041971 -15.2000 65.4000 -1 -14.8000 66.3000 99 9.90000 -15.1626 65.3870 4 -14.8000 66.3000 TC 95 5 263
1970345S09089 1971 153 SI MM DOMINIQUE:HILARY 1970-12-20 15:00:00 TS -15.0555 65.5198 main 998 980 P____P____P_P_ SH041971 -15.1997 65.1799 -1 -14.8499 66.0425 99 -15.1785 65.1544 4 -14.8499 66.0425 TC 95 5 264
1970345S09089 1971 153 SI MM DOMINIQUE:HILARY 1970-12-20 18:00:00 TS -15.0800 65.2600 reunion main 980 946 O____O____O_O_ jtwc_sh SH041971 -15.2000 64.9000 -1 -14.9000 65.8000 99 9.90000 -15.2000 64.9000 4 -14.9000 65.8000 TC 95 7 264
1970345S09089 1971 153 SI MM DOMINIQUE:HILARY 1970-12-20 21:00:00 TS -15.1297 64.8310 main 937 896 P____P____P_P_ SH041971 -15.2429 64.3576 -1 -14.9575 65.5150 99 -15.2477 64.4096 4 -14.9575 65.5150 TC 92 9 263
1970345S09089 1971 153 SI MM DOMINIQUE:HILARY 1970-12-21 00:00:00 TS -15.1802 64.3801 reunion main 896 848 O____O____P_O_ jtwc_sh SH041971 -15.3000 63.8000 -1 -15.0000 65.2000 99 9.90000 -15.3011 63.9003 4 -15.0000 65.2000 TC 90 9 262
1970345S09089 1971 153 SI MM DOMINIQUE:HILARY 1970-12-21 03:00:00 TS -15.2600 63.8900 main 848 815 P____P____P_P_ SH041971 -15.3574 63.3875 -1 -15.0082 64.8437 99 -15.3538 63.4658 4 -15.0082 64.8437 TC 87 8 262
1970345S09089 1971 153 SI MM DOMINIQUE:HILARY 1970-12-21 06:00:00 TS -15.3000 63.5250 reunion main 815 808 O____O____O_O_ jtwc_sh SH041971 -15.4000 63.2000 -1 -15.0000 64.5000 4 9.90000 -15.4000 63.2000 4 -15.0000 64.5000 TC 85 5 264
1970345S09089 1971 153 SI MM DOMINIQUE:HILARY 1970-12-21 09:00:00 TS -15.3045 63.4175 main 808 800 P_________P___ SH041971 -15.4000 63.3250 -1 4 -15.4319 63.2202 4 TC 1 0
1970345S09089 1971 153 SI MM DOMINIQUE:HILARY 1970-12-21 12:00:00 TS -15.4191 63.5374 reunion main 808 808 O_________P___ jtwc_sh SH041971 -15.4000 63.6000 -1 4 -15.4573 63.4123 4 TC 4 114
1970345S09089 1971 153 SI MM DOMINIQUE:HILARY 1970-12-21 15:00:00 TS -15.4597 63.7761 main 825 825 P_________P___ SH041971 -15.4500 63.8150 -1 4 -15.4791 63.6984 4 TC 5 100
1970345S09089 1971 153 SI MM DOMINIQUE:HILARY 1970-12-21 18:00:00 TS -15.5000 64.0000 reunion main 842 842 O_________O___ jtwc_sh SH041971 -15.5000 64.0000 -1 4 -15.5000 64.0000 4 TC 3 101
1970345S09089 1971 153 SI MM DOMINIQUE:HILARY 1970-12-21 21:00:00 TS -15.5144 64.0786 main 850 850 P_________P___ SH041971 -15.4999 64.0850 -1 4 -15.5434 64.0658 4 TC 2 99
1970345S09089 1971 153 SI MM DOMINIQUE:HILARY 1970-12-22 00:00:00 TS -15.5280 64.1841 reunion main 859 852 O_________P___ jtwc_sh SH041971 -15.5000 64.2000 -1 4 -15.5841 64.1522 4 TC 3 104
1970345S09089 1971 153 SI MM DOMINIQUE:HILARY 1970-12-22 03:00:00 TS -15.5839 64.3740 main 869 869 P_________P___ SH041971 -15.5719 64.3798 -1 4 -15.6079 64.3625 4 TC 6 97
1970345S09089 1971 153 SI MM DOMINIQUE:HILARY 1970-12-22 06:00:00 TS -15.6000 64.8000 reunion main 904 904 O_________O___ jtwc_sh SH041971 -15.6000 64.8000 -1 4 -15.6000 64.8000 2 TC 12 85
1970345S09089 1971 153 SI MM DOMINIQUE:HILARY 1970-12-22 09:00:00 TS -15.4731 65.5788 main 981 981 P_________P___ SH041971 -15.4650 65.5730 -1 4 -15.4894 65.5905 2 TC 18 81
1970345S09089 1971 153 SI MM DOMINIQUE:HILARY 1970-12-22 12:00:00 TS -15.3168 66.6023 reunion main 1084 1084 O_________P___ jtwc_sh SH041971 -15.3000 66.6000 -1 4 -15.3505 66.6068 2 TC 21 83
1970345S09089 1971 153 SI MM DOMINIQUE:HILARY 1970-12-22 15:00:00 TS -15.2105 67.7384 main 1192 1192 P_________P___ SH041971 -15.1978 67.7354 -1 4 -15.2359 67.7443 2 TC 22 87
1970345S09089 1971 153 SI MM DOMINIQUE:HILARY 1970-12-22 18:00:00 TS -15.2000 68.9000 reunion main 1306 1306 O_________O___ jtwc_sh SH041971 -15.2000 68.9000 -1 4 -15.2000 68.9000 2 TC 22 94
1970345S09089 1971 153 SI MM DOMINIQUE:HILARY 1970-12-22 21:00:00 TS -15.3465 69.9765 main 1407 1402 P_________P___ SH041971 -15.3616 69.9147 -1 4 -15.3162 70.1002 2 TC 21 100
1970345S09089 1971 153 SI MM DOMINIQUE:HILARY 1970-12-23 00:00:00 TS -15.5713 71.0251 reunion main 1491 1491 O_________P___ jtwc_sh SH041971 -15.6000 70.9000 -1 4 -15.5137 71.2753 2 TC 21 102
1970345S09089 1971 153 SI MM DOMINIQUE:HILARY 1970-12-23 03:00:00 TS -15.7852 72.1425 main 1592 1592 P_________P___ SH041971 -15.8009 72.0697 -1 4 -15.7538 72.2882 2 TC 20 103
1970345S09089 1971 153 SI MM DOMINIQUE:HILARY 1970-12-23 06:00:00 TS -16.0000 73.0000 reunion main 1675 1675 O_________O___ jtwc_sh SH041971 -16.0000 73.0000 -1 4 -16.0000 73.0000 1 TC 12 109
1970345S09089 1971 153 SI MM DOMINIQUE:HILARY 1970-12-23 09:00:00 TS -16.1983 73.3582 main 1709 1692 P_________P___ SH041971 -16.1990 73.4101 -1 4 -16.1970 73.2545 1 TC 5 141
1970345S09089 1971 153 SI MM DOMINIQUE:HILARY 1970-12-23 12:00:00 TS -16.3990 73.3346 reunion main 1692 1665 O_________P___ jtwc_sh SH041971 -16.4000 73.4000 -1 4 -16.3969 73.2039 1 TC 5 215
1970345S09089 1971 153 SI MM DOMINIQUE:HILARY 1970-12-23 15:00:00 TS -16.5996 73.0606 main 1665 1618 P_________P___ SH041971 -16.6003 73.1028 -1 4 -16.5984 72.9762 1 TC 7 237
1970345S09089 1971 153 SI MM DOMINIQUE:HILARY 1970-12-23 18:00:00 TS -16.8000 72.7000 reunion main 1618 1591 O_________O___ jtwc_sh SH041971 -16.8000 72.7000 -1 4 -16.8000 72.7000 1 TC 6 231
1970345S09089 1971 153 SI MM DOMINIQUE:HILARY 1970-12-23 21:00:00 TS -17.0013 72.5411 main 1591 1575 P_________P___ SH041971 -16.9999 72.5199 -1 4 -17.0040 72.5837 1 TC 5 214
1970345S09089 1971 153 SI MM DOMINIQUE:HILARY 1970-12-24 00:00:00 TS -17.2025 72.4150 reunion main 1575 1559 O_________P___ jtwc_sh SH041971 -17.2000 72.4000 -1 4 -17.2074 72.4449 1 TC 5 213
1970345S09089 1971 153 SI MM DOMINIQUE:HILARY 1970-12-24 03:00:00 TS -17.4074 72.2662 main 1559 1549 P_________P___ SH041971 -17.4075 72.2575 -1 4 -17.4071 72.2837 1 TC 2 226
1970345S09089 1971 153 SI MM DOMINIQUE:HILARY 1970-12-24 06:00:00 TS -17.3714 72.2286 reunion main 1549 1549 O____O____O_O_ jtwc_sh SH041971 -17.6000 72.1000 -1 -16.0000 73.0000 3 9.90000 -17.6000 72.1000 1 -16.0000 73.0000 TC 40 1 290
1970345S09089 1971 153 SI MM DOMINIQUE:HILARY 1970-12-24 09:00:00 TS -17.3722 72.1608 main 1549 1528 P____P____P_P_ SH041971 -17.7500 71.9149 -1 -16.1964 72.8303 3 -17.7741 71.9005 1 -16.1964 72.8303 TC 40 2 260
1970345S09089 1971 153 SI MM DOMINIQUE:HILARY 1970-12-24 12:00:00 TS -17.4094 71.9955 reunion main 1528 1489 O____O____P_O_ jtwc_sh SH041971 -17.9000 71.7000 -1 -16.4000 72.6000 99 9.90000 -17.9425 71.6797 1 -16.4000 72.6000 TC 40 6 233
1970345S09089 1971 153 SI MM DOMINIQUE:HILARY 1970-12-24 15:00:00 TS -17.7305 71.6667 main 1489 1438 P____P____P_P_ SH041971 -18.0925 71.4575 -1 -16.5994 72.3183 99 -18.1147 71.4441 1 -16.5994 72.3183 TC 40 9 224
1970345S09089 1971 153 SI MM DOMINIQUE:HILARY 1970-12-24 18:00:00 TS -18.0857 71.3143 reunion main 1438 1398 O____O____O_O_ jtwc_sh SH041971 -18.3000 71.2000 -1 -16.8000 72.0000 99 9.90000 -18.3000 71.2000 1 -16.8000 72.0000 TC 40 10 221
1970345S09089 1971 153 SI MM DOMINIQUE:HILARY 1970-12-24 21:00:00 TS -18.4998 70.9537 main 1398 1363 P____P____P_P_ SH041971 -18.4925 70.9499 -1 -16.9899 71.7256 99 -18.5146 70.9612 1 -16.9899 71.7256 TC 9 223
1970345S09089 1971 153 SI MM DOMINIQUE:HILARY 1970-12-25 00:00:00 TS -18.7141 70.7050 reunion main 1363 1339 O____P____P_P_ jtwc_sh SH041971 -18.7000 70.7000 -1 -17.1733 71.4694 99 -18.7424 70.7149 1 -17.1733 71.4694 TC 7 226
1970345S09089 1971 153 SI MM DOMINIQUE:HILARY 1970-12-25 03:00:00 TS -18.9580 70.4537 main 1337 1303 P____P____P_P_ SH041971 -18.9500 70.4500 -1 -17.3524 71.2264 99 -18.9740 70.4612 1 -17.3524 71.2264 TC 7 225
1970345S09089 1971 153 SI MM DOMINIQUE:HILARY 1970-12-25 06:00:00 TS -19.2000 70.2000 reunion main 1303 1279 O____P____O_P_ jtwc_sh SH041971 -19.2000 70.2000 -1 -17.5295 70.9918 99 -19.2000 70.2000 1 -17.5295 70.9918 TC 7 226
1970345S09089 1971 153 SI MM DOMINIQUE:HILARY 1970-12-25 09:00:00 TS -19.4086 69.9529 main 1279 1245 P____P____P_P_ SH041971 -19.4074 69.9574 -1 -17.7069 70.7606 99 -19.4110 69.9441 1 -17.7069 70.7606 TC 6 230
1970345S09089 1971 153 SI MM DOMINIQUE:HILARY 1970-12-25 12:00:00 TS -19.6049 69.6932 reunion main 1245 1212 O____P____P_P_ jtwc_sh SH041971 -19.6000 69.7000 -1 -17.8868 70.5280 99 -19.6147 69.6796 1 -17.8868 70.5280 TC 6 232
1970345S09089 1971 153 SI MM DOMINIQUE:HILARY 1970-12-25 15:00:00 TS -19.8036 69.4101 main 1212 1179 P____P____P_P_ SH041971 -19.7999 69.4149 -1 -18.0715 70.2890 99 -19.8110 69.4003 1 -18.0715 70.2890 TC 7 235
1970345S09089 1971 153 SI MM DOMINIQUE:HILARY 1970-12-25 18:00:00 TS -20.0000 69.1000 reunion main 1179 1147 O____P____O_P_ jtwc_sh SH041971 -20.0000 69.1000 -1 -18.2631 70.0385 99 -20.0000 69.1000 1 -18.2631 70.0385 TC 7 237
1970345S09089 1971 153 SI MM DOMINIQUE:HILARY 1970-12-25 21:00:00 TS -20.2032 68.7541 main 1147 1104 P____P____P_P_ SH041971 -20.2075 68.7575 -1 -18.4639 69.7714 99 -20.1947 68.7474 1 -18.4639 69.7714 TC 8 239
1970345S09089 1971 153 SI MM DOMINIQUE:HILARY 1970-12-26 00:00:00 TS -20.3935 68.3926 reunion main 1104 1062 O____P____P_P_ jtwc_sh SH041971 -20.4000 68.4000 -1 -18.6759 69.4827 99 -20.3804 68.3778 1 -18.6759 69.4827 TC 8 243
1970345S09089 1971 153 SI MM DOMINIQUE:HILARY 1970-12-26 03:00:00 TS -20.5604 68.0198 main 1062 1031 P____P____P_P_ SH041971 -20.5651 68.0200 -1 -18.9013 69.1672 99 -20.5509 68.0193 1 -18.9013 69.1672 TC 7 245
1970345S09089 1971 153 SI MM DOMINIQUE:HILARY 1970-12-26 06:00:00 TS -20.7000 67.7000 reunion main 1031 1011 O____P____O_P_ jtwc_sh SH041971 -20.7000 67.7000 -1 -19.1422 68.8195 99 -20.7000 67.7000 1 -19.1422 68.8195 TC 5 241
1970345S09089 1971 153 SI MM DOMINIQUE:HILARY 1970-12-26 09:00:00 TS -20.8129 67.5357 main 1011 1001 P____P____P_P_ SH041971 -20.8073 67.5349 -1 -19.4006 68.4344 99 -20.8241 67.5373 1 -19.4006 68.4344 TC 3 233
1970345S09089 1971 153 SI MM DOMINIQUE:HILARY 1970-12-26 12:00:00 TS -20.9092 67.4013 reunion main 1001 990 O____P____P_P_ jtwc_sh SH041971 -20.9000 67.4000 -1 -19.6785 68.0065 99 -20.9276 67.4039 1 -19.6785 68.0065 TC 2 256
1970345S09089 1971 153 SI MM DOMINIQUE:HILARY 1970-12-26 15:00:00 TS -20.8743 67.2770 main 990 959 P____P____P_P_ SH041971 -21.0070 67.2324 -1 -19.9777 67.5302 99 -21.0173 67.2186 1 -19.9777 67.5302 TC 4 271
1970345S09089 1971 153 SI MM DOMINIQUE:HILARY 1970-12-26 18:00:00 TS -20.9000 66.9250 reunion main 949 898 O____O____O_O_ jtwc_sh SH041971 -21.1000 66.9000 -1 -20.3000 67.0000 99 9.90000 -21.1000 66.9000 1 -20.3000 67.0000 TC 35 9 262
1970345S09089 1971 153 SI MM DOMINIQUE:HILARY 1970-12-26 21:00:00 TS -20.9977 66.3377 main 887 816 P____P____P_P_ SH041971 -21.1504 66.2673 -1 -20.6536 66.5074 99 -21.1472 66.3304 1 -20.6445 66.4157 TC 32 13 259
1970345S09089 1971 153 SI MM DOMINIQUE:HILARY 1970-12-27 00:00:00 TS -21.1480 65.6064 reunion main 816 735 O____O____P_O_ jtwc_sh SH041971 -21.2000 65.5000 -1 -21.0000 65.8000 99 9.90000 -21.1922 65.6256 1 -21.0000 65.8000 TC 30 15 259
1970345S09089 1971 153 SI MM DOMINIQUE:HILARY 1970-12-27 03:00:00 TS -21.2799 64.8020 main 735 665 P____P____P___ SH041971 -21.2774 64.7849 -1 -21.3136 64.7527 99 -21.2658 64.8581 1 TC 15 260
1970345S09089 1971 153 SI MM DOMINIQUE:HILARY 1970-12-27 06:00:00 TS -21.4154 64.0538 reunion main 665 606 O____O____O___ jtwc_sh SH041971 -21.4000 64.1000 -1 -21.6000 63.5000 3 9.90000 -21.4000 64.1000 1 13 257
1970345S09089 1971 153 SI MM DOMINIQUE:HILARY 1970-12-27 09:00:00 TS -21.5702 63.4816 main 609 555 P_________P___ SH041971 -21.5545 63.4920 -1 3 -21.6015 63.4608 1 12 249
1970345S09089 1971 153 SI MM DOMINIQUE:HILARY 1970-12-27 12:00:00 TS -21.8236 62.8803 main 555 507 O_________P___ jtwc_sh SH041971 -21.8000 62.9000 -1 -21.8708 62.8410 1 13 242
1970345S09089 1971 153 SI MM DOMINIQUE:HILARY 1970-12-27 15:00:00 TS -22.1765 62.2469 main 502 466 P_________P___ SH041971 -22.1623 62.2575 -1 -22.2047 62.2257 1 14 237
1970345S09089 1971 153 SI MM DOMINIQUE:HILARY 1970-12-27 18:00:00 TS -22.6000 61.6000 main 466 440 O_________O___ jtwc_sh SH041971 -22.6000 61.6000 -1 -22.6000 61.6000 1 15 234
1970345S09089 1971 153 SI MM DOMINIQUE:HILARY 1970-12-27 21:00:00 TS -23.0352 60.9552 main 440 425 P_________P___ SH041971 -23.0271 60.9568 -1 -23.0514 60.9520 1 15 233
1970345S09089 1971 153 SI MM DOMINIQUE:HILARY 1970-12-28 00:00:00 TS -23.5151 60.2942 main 429 425 O_________P___ jtwc_sh SH041971 -23.5000 60.3000 -1 -23.5454 60.2827 1 16 231
1970345S09089 1971 153 SI MM DOMINIQUE:HILARY 1970-12-28 03:00:00 TS -24.0444 59.6066 main 437 437 P_________P___ SH041971 -24.0332 59.6115 -1 -24.0668 59.5970 1 17 230
1970345S09089 1971 153 SI MM DOMINIQUE:HILARY 1970-12-28 06:00:00 TS -24.6000 58.9000 main 474 O_________O___ jtwc_sh SH041971 -24.6000 58.9000 -1 -24.6000 58.9000 1 17 229

IBTrACS Databaseについて

本データベースは、米国NOAAが公開する1842年以降の世界の熱帯低気圧のベストトラックデータアーカイブInternational Best Track Archive for Climate Stewardship (IBTrACS)を、ウェブで閲覧しやすい形式に変換したものです。

最終更新日:2021-10-08